createdAt,value
2019-03-19T00:01:14.227Z,2.94
2019-03-19T00:03:42.667Z,2.83
2019-03-19T00:06:11.158Z,2.83
2019-03-19T00:08:39.592Z,2.74
2019-03-19T00:11:08.046Z,2.78
2019-03-19T00:13:36.498Z,2.72
2019-03-19T00:16:04.943Z,2.70
2019-03-19T00:18:33.368Z,2.76
2019-03-19T00:21:01.819Z,2.74
2019-03-19T00:23:30.277Z,2.76
2019-03-19T00:25:58.742Z,2.77
2019-03-19T00:28:27.305Z,2.81
2019-03-19T00:30:55.725Z,2.86
2019-03-19T00:33:24.223Z,2.90
2019-03-19T00:35:52.660Z,2.90
2019-03-19T00:38:21.093Z,2.88
2019-03-19T00:40:49.541Z,2.88
2019-03-19T00:43:17.990Z,2.86
2019-03-19T00:45:46.421Z,2.89
2019-03-19T00:48:14.872Z,2.92
2019-03-19T00:50:43.427Z,2.93
2019-03-19T00:53:11.863Z,2.89
2019-03-19T00:55:41.154Z,2.92
2019-03-19T00:58:09.927Z,2.95
2019-03-19T01:00:38.384Z,2.97
2019-03-19T01:03:06.845Z,2.98
2019-03-19T01:05:35.287Z,2.93
2019-03-19T01:08:03.808Z,2.95
2019-03-19T01:10:32.333Z,2.93
2019-03-19T01:13:00.784Z,2.94
2019-03-19T01:15:29.216Z,2.90
2019-03-19T01:17:57.671Z,2.95
2019-03-19T01:20:26.157Z,2.95
2019-03-19T01:22:54.608Z,3.02
2019-03-19T01:25:23.159Z,2.98
2019-03-19T01:27:51.635Z,2.95
2019-03-19T01:30:20.072Z,2.93
2019-03-19T01:32:48.511Z,2.91
2019-03-19T01:35:16.978Z,2.95
2019-03-19T01:37:45.399Z,2.95
2019-03-19T01:40:14.281Z,2.90
2019-03-19T01:42:42.812Z,2.90
2019-03-19T01:45:12.382Z,2.88
2019-03-19T01:47:40.869Z,2.85
2019-03-19T01:50:15.983Z,2.82
2019-03-19T01:52:44.493Z,2.93
2019-03-19T01:55:16.285Z,2.95
2019-03-19T01:57:44.732Z,2.97
2019-03-19T02:00:18.758Z,3.04
2019-03-19T02:02:47.231Z,3.05
2019-03-19T02:05:15.748Z,3.08
2019-03-19T02:07:44.225Z,3.11
2019-03-19T02:10:16.534Z,3.14
2019-03-19T02:12:44.964Z,3.16
2019-03-19T02:15:18.171Z,3.18
2019-03-19T02:17:46.765Z,3.19
2019-03-19T02:20:16.468Z,3.12
2019-03-19T02:22:45.013Z,3.16
2019-03-19T02:25:13.444Z,3.12
2019-03-19T02:27:41.940Z,3.18
2019-03-19T02:30:14.895Z,3.18
2019-03-19T02:32:43.468Z,3.19
2019-03-19T02:35:12.164Z,3.19
2019-03-19T02:37:40.611Z,3.18
2019-03-19T02:40:11.791Z,3.22
2019-03-19T02:42:40.255Z,3.18
2019-03-19T02:45:15.904Z,3.17
2019-03-19T02:47:44.391Z,3.14
2019-03-19T02:50:17.289Z,3.12
2019-03-19T02:52:45.701Z,3.08
2019-03-19T02:55:14.590Z,3.08
2019-03-19T02:57:43.119Z,3.04
2019-03-19T03:00:20.587Z,3.01
2019-03-19T03:02:49.058Z,3.05
2019-03-19T03:05:23.296Z,3.00
2019-03-19T03:07:51.743Z,2.94
2019-03-19T03:10:20.211Z,2.99
2019-03-19T03:12:48.652Z,2.91
2019-03-19T03:15:17.224Z,2.96
2019-03-19T03:17:45.687Z,2.91
2019-03-19T03:20:17.638Z,2.81
2019-03-19T03:22:46.196Z,2.82
2019-03-19T03:25:17.036Z,2.73
2019-03-19T03:27:45.507Z,2.76
2019-03-19T03:30:19.094Z,2.68
2019-03-19T03:32:47.518Z,2.67
2019-03-19T03:35:16.137Z,2.71
2019-03-19T03:37:44.561Z,2.73
2019-03-19T03:40:18.244Z,2.74
2019-03-19T03:42:46.702Z,2.76
2019-03-19T03:45:16.686Z,2.68
2019-03-19T03:47:45.274Z,2.70
2019-03-19T03:50:15.246Z,2.59
2019-03-19T03:52:43.778Z,2.63
2019-03-19T03:55:15.636Z,2.56
2019-03-19T03:57:44.062Z,2.59
2019-03-19T04:00:16.782Z,2.60
2019-03-19T04:02:45.232Z,2.60
2019-03-19T04:05:13.972Z,2.58
2019-03-19T04:07:42.444Z,2.58
2019-03-19T04:10:16.104Z,2.61
2019-03-19T04:12:47.508Z,2.57
2019-03-19T04:15:19.249Z,2.60
2019-03-19T04:17:47.724Z,2.54
2019-03-19T04:20:19.261Z,2.53
2019-03-19T04:22:47.760Z,2.51
2019-03-19T04:25:16.303Z,2.49
2019-03-19T04:27:44.840Z,2.50
2019-03-19T04:30:17.947Z,2.53
2019-03-19T04:32:46.476Z,2.55
2019-03-19T04:35:14.926Z,2.58
2019-03-19T04:37:43.515Z,2.61
2019-03-19T04:40:15.760Z,2.63
2019-03-19T04:42:44.656Z,2.65
2019-03-19T04:45:16.817Z,2.69
2019-03-19T04:47:45.404Z,2.68
2019-03-19T04:50:15.926Z,2.73
2019-03-19T04:52:44.527Z,2.76
2019-03-19T04:55:14.608Z,2.76
2019-03-19T04:57:43.059Z,2.81
2019-03-19T05:00:16.839Z,2.84
2019-03-19T05:02:45.304Z,2.82
2019-03-19T05:05:14.581Z,2.84
2019-03-19T05:07:43.086Z,2.85
2019-03-19T05:10:18.478Z,2.90
2019-03-19T05:12:46.999Z,2.89
2019-03-19T05:15:15.605Z,2.91
2019-03-19T05:17:44.050Z,2.90
2019-03-19T05:20:17.379Z,2.90
2019-03-19T05:22:45.918Z,2.88
2019-03-19T05:25:14.333Z,2.88
2019-03-19T05:27:42.841Z,2.91
2019-03-19T05:30:14.046Z,2.92
2019-03-19T05:32:43.163Z,2.90
2019-03-19T05:35:11.731Z,2.85
2019-03-19T05:37:40.268Z,2.88
2019-03-19T05:40:14.256Z,2.88
2019-03-19T05:42:43.511Z,2.89
2019-03-19T05:45:15.907Z,2.92
2019-03-19T05:47:44.513Z,2.94
2019-03-19T05:50:14.902Z,2.95
2019-03-19T05:52:43.328Z,2.96
2019-03-19T05:55:11.912Z,2.98
2019-03-19T05:57:48.969Z,2.97
2019-03-19T06:00:13.537Z,2.93
2019-03-19T06:02:42.002Z,2.96
2019-03-19T06:05:12.266Z,2.96
2019-03-19T06:07:40.708Z,3.03
2019-03-19T06:10:11.397Z,3.06
2019-03-19T06:12:39.852Z,3.08
2019-03-19T06:15:10.695Z,3.05
2019-03-19T06:17:39.272Z,3.04
2019-03-19T06:20:15.999Z,3.13
2019-03-19T06:22:45.510Z,3.11
2019-03-19T06:25:14.463Z,3.12
2019-03-19T06:27:43.133Z,3.03
2019-03-19T06:30:16.627Z,3.07
2019-03-19T06:32:45.050Z,3.09
2019-03-19T06:35:15.112Z,3.25
2019-03-19T06:37:46.812Z,3.30
2019-03-19T06:40:17.485Z,3.51
2019-03-19T06:42:47.281Z,3.40
2019-03-19T06:45:21.763Z,3.53
2019-03-19T06:47:50.249Z,3.45
2019-03-19T06:50:20.242Z,3.50
2019-03-19T06:52:48.743Z,3.56
2019-03-19T06:55:18.489Z,3.97
2019-03-19T06:57:46.941Z,4.06
2019-03-19T07:00:24.476Z,4.12
2019-03-19T07:02:52.908Z,4.02
2019-03-19T07:05:22.203Z,4.17
2019-03-19T07:07:50.672Z,4.37
2019-03-19T07:10:20.463Z,4.20
2019-03-19T07:12:49.042Z,4.29
2019-03-19T07:15:19.077Z,4.18
2019-03-19T07:17:47.930Z,4.18
2019-03-19T07:20:21.347Z,4.39
2019-03-19T07:22:49.932Z,4.59
2019-03-19T07:25:18.449Z,4.38
2019-03-19T07:27:46.967Z,4.46
2019-03-19T07:30:18.398Z,4.77
2019-03-19T07:32:47.211Z,5.11
2019-03-19T07:35:15.807Z,5.27
2019-03-19T07:37:44.343Z,5.38
2019-03-19T07:40:14.975Z,5.59
2019-03-19T07:42:43.592Z,5.38
2019-03-19T07:45:20.876Z,5.21
2019-03-19T07:47:49.328Z,5.11
2019-03-19T07:50:19.989Z,5.71
2019-03-19T07:52:48.525Z,6.25
2019-03-19T07:55:16.951Z,6.79
2019-03-19T07:57:45.557Z,6.86
2019-03-19T08:00:21.758Z,6.43
2019-03-19T08:02:51.095Z,6.28
2019-03-19T08:05:19.602Z,5.96
2019-03-19T08:07:48.398Z,6.14
2019-03-19T08:10:19.051Z,5.82
2019-03-19T08:12:47.558Z,6.26
2019-03-19T08:15:20.723Z,6.04
2019-03-19T08:17:49.889Z,6.28
2019-03-19T08:20:18.901Z,5.90
2019-03-19T08:22:47.518Z,5.72
2019-03-19T08:25:17.589Z,5.95
2019-03-19T08:27:49.218Z,6.22
2019-03-19T08:30:24.271Z,6.81
2019-03-19T08:32:53.273Z,7.60
2019-03-19T08:35:21.751Z,7.64
2019-03-19T08:37:50.185Z,7.98
2019-03-19T08:40:21.889Z,7.46
2019-03-19T08:42:51.525Z,8.17
2019-03-19T08:45:26.996Z,8.42
2019-03-19T08:47:55.551Z,8.22
2019-03-19T08:50:24.653Z,7.53
2019-03-19T08:52:55.210Z,7.38
2019-03-19T08:55:23.323Z,7.09
2019-03-19T08:57:52.394Z,6.93
2019-03-19T09:00:26.099Z,6.80
2019-03-19T09:02:56.227Z,6.91
2019-03-19T09:05:24.792Z,7.02
2019-03-19T09:07:53.528Z,7.07
2019-03-19T09:10:22.221Z,6.86
2019-03-19T09:12:50.703Z,7.48
2019-03-19T09:15:25.114Z,7.18
2019-03-19T09:17:54.007Z,7.64
2019-03-19T09:20:22.466Z,7.83
2019-03-19T09:22:52.775Z,7.69
2019-03-19T09:25:21.207Z,7.40
2019-03-19T09:27:49.672Z,7.59
2019-03-19T09:30:19.185Z,7.54
2019-03-19T09:32:47.573Z,7.74
2019-03-19T09:35:34.764Z,7.74
2019-03-19T09:38:01.817Z,7.55
2019-03-19T09:40:30.493Z,7.99
2019-03-19T09:42:58.922Z,7.74
2019-03-19T09:45:27.365Z,7.52
2019-03-19T09:47:55.813Z,7.56
2019-03-19T09:50:26.408Z,7.60
2019-03-19T09:52:55.004Z,7.37
2019-03-19T09:55:23.614Z,7.31
2019-03-19T09:57:52.121Z,7.32
2019-03-19T10:00:24.003Z,7.21
2019-03-19T10:02:52.499Z,7.09
2019-03-19T10:05:21.002Z,7.17
2019-03-19T10:07:49.440Z,6.94
2019-03-19T10:10:20.224Z,6.84
2019-03-19T10:12:48.781Z,6.79
2019-03-19T10:15:17.963Z,6.73
2019-03-19T10:17:46.482Z,6.85
2019-03-19T10:20:20.783Z,6.74
2019-03-19T10:22:49.279Z,7.02
2019-03-19T10:25:17.720Z,7.33
2019-03-19T10:27:46.272Z,7.65
2019-03-19T10:30:22.301Z,7.85
2019-03-19T10:32:50.911Z,8.09
2019-03-19T10:35:19.438Z,7.91
2019-03-19T10:37:47.942Z,7.86
2019-03-19T10:40:21.079Z,7.68
2019-03-19T10:42:49.663Z,7.68
2019-03-19T10:45:20.405Z,7.58
2019-03-19T10:47:48.854Z,7.44
2019-03-19T10:50:21.643Z,7.60
2019-03-19T10:52:50.309Z,8.01
2019-03-19T10:55:18.957Z,7.95
2019-03-19T10:57:47.471Z,8.02
2019-03-19T11:00:26.193Z,8.19
2019-03-19T11:02:54.866Z,8.60
2019-03-19T11:05:26.862Z,8.18
2019-03-19T11:07:55.487Z,7.90
2019-03-19T11:10:25.010Z,7.84
2019-03-19T11:12:53.476Z,8.05
2019-03-19T11:15:23.567Z,8.43
2019-03-19T11:17:52.081Z,8.52
2019-03-19T11:20:21.211Z,8.76
2019-03-19T11:22:49.782Z,8.84
2019-03-19T11:25:30.803Z,8.61
2019-03-19T11:27:59.251Z,8.57
2019-03-19T11:30:31.327Z,8.33
2019-03-19T11:32:59.935Z,8.31
2019-03-19T11:35:28.574Z,8.26
2019-03-19T11:37:56.998Z,8.24
2019-03-19T11:40:26.276Z,8.06
2019-03-19T11:42:54.910Z,7.96
2019-03-19T11:45:24.698Z,8.02
2019-03-19T11:47:53.149Z,8.10
2019-03-19T11:50:26.001Z,8.46
2019-03-19T11:52:54.520Z,8.19
2019-03-19T11:55:23.064Z,8.02
2019-03-19T11:57:52.015Z,7.96
2019-03-19T12:00:33.077Z,8.11
2019-03-19T12:03:12.182Z,8.08
2019-03-19T12:05:31.807Z,8.05
2019-03-19T12:08:01.030Z,8.16
2019-03-19T12:10:29.467Z,8.16
2019-03-19T12:12:57.903Z,8.28
2019-03-19T12:15:26.340Z,8.22
2019-03-19T12:17:54.797Z,8.16
2019-03-19T12:20:23.279Z,8.09
2019-03-19T12:22:51.739Z,8.12
2019-03-19T12:25:20.147Z,8.31
2019-03-19T12:27:48.596Z,8.14
2019-03-19T12:30:24.765Z,8.01
2019-03-19T12:32:52.217Z,8.03
2019-03-19T12:35:21.802Z,7.93
2019-03-19T12:37:50.234Z,7.95
2019-03-19T12:40:36.214Z,7.86
2019-03-19T12:42:55.865Z,8.07
2019-03-19T12:45:24.998Z,8.28
2019-03-19T12:47:53.432Z,8.16
2019-03-19T12:50:24.110Z,8.31
2019-03-19T12:52:52.602Z,8.32
2019-03-19T12:55:21.126Z,8.39
2019-03-19T12:57:49.832Z,8.43
2019-03-19T13:00:33.979Z,8.34
2019-03-19T13:02:56.102Z,8.36
2019-03-19T13:05:24.600Z,8.39
2019-03-19T13:07:53.041Z,8.13
2019-03-19T13:10:25.246Z,7.96
2019-03-19T13:12:53.815Z,8.11
2019-03-19T13:15:22.480Z,8.08
2019-03-19T13:17:50.966Z,8.24
2019-03-19T13:20:23.314Z,8.31
2019-03-19T13:22:51.815Z,8.21
2019-03-19T13:25:24.057Z,8.09
2019-03-19T13:27:52.598Z,7.87
2019-03-19T13:30:22.736Z,8.01
2019-03-19T13:32:51.189Z,8.12
2019-03-19T13:35:19.640Z,8.18
2019-03-19T13:37:48.061Z,8.23
2019-03-19T13:40:20.406Z,8.22
2019-03-19T13:42:49.007Z,8.20
2019-03-19T13:45:20.490Z,8.26
2019-03-19T13:47:48.954Z,8.26
2019-03-19T13:50:21.517Z,8.34
2019-03-19T13:52:50.074Z,8.35
2019-03-19T13:55:20.058Z,8.34
2019-03-19T13:57:48.499Z,8.41
2019-03-19T14:00:19.700Z,8.44
2019-03-19T14:02:48.125Z,8.52
2019-03-19T14:05:17.542Z,8.52
2019-03-19T14:07:46.106Z,8.57
2019-03-19T14:10:19.969Z,8.49
2019-03-19T14:12:48.777Z,8.38
2019-03-19T14:15:22.123Z,8.39
2019-03-19T14:17:50.721Z,8.50
2019-03-19T14:20:19.147Z,8.62
2019-03-19T14:22:47.670Z,8.68
2019-03-19T14:25:16.855Z,8.67
2019-03-19T14:27:45.458Z,8.51
2019-03-19T14:30:22.198Z,8.47
2019-03-19T14:32:50.699Z,8.42
2019-03-19T14:35:19.207Z,8.40
2019-03-19T14:37:48.340Z,8.41
2019-03-19T14:40:22.485Z,8.48
2019-03-19T14:42:50.999Z,8.42
2019-03-19T14:45:21.648Z,8.30
2019-03-19T14:47:50.209Z,8.30
2019-03-19T14:50:24.315Z,8.28
2019-03-19T14:52:52.844Z,8.36
2019-03-19T14:55:21.378Z,8.44
2019-03-19T14:57:51.105Z,8.50
2019-03-19T15:00:25.740Z,8.41
2019-03-19T15:02:54.374Z,8.49
2019-03-19T15:05:22.905Z,8.53
2019-03-19T15:07:51.418Z,8.42
2019-03-19T15:10:21.223Z,8.42
2019-03-19T15:12:49.815Z,8.33
2019-03-19T15:15:19.490Z,8.36
2019-03-19T15:17:47.994Z,8.39
2019-03-19T15:20:27.254Z,8.49
2019-03-19T15:22:55.749Z,8.49
2019-03-19T15:25:24.384Z,8.56
2019-03-19T15:27:53.395Z,8.62
2019-03-19T15:30:21.893Z,8.62
2019-03-19T15:32:50.370Z,8.66
2019-03-19T15:35:22.440Z,8.69
2019-03-19T15:37:50.889Z,8.63
2019-03-19T15:40:22.961Z,8.65
2019-03-19T15:42:51.379Z,8.68
2019-03-19T15:45:21.168Z,8.64
2019-03-19T15:47:49.702Z,8.59
2019-03-19T15:50:18.399Z,8.53
2019-03-19T15:52:47.052Z,8.55
2019-03-19T15:55:15.958Z,8.50
2019-03-19T15:57:44.408Z,8.47
2019-03-19T16:00:18.763Z,8.34
2019-03-19T16:02:47.528Z,8.34
2019-03-19T16:05:16.534Z,8.36
2019-03-19T16:07:45.064Z,8.32
2019-03-19T16:10:15.316Z,8.30
2019-03-19T16:12:44.332Z,8.28
2019-03-19T16:15:23.790Z,8.23
2019-03-19T16:17:52.321Z,8.22
2019-03-19T16:20:22.230Z,8.21
2019-03-19T16:22:50.711Z,8.17
2019-03-19T16:25:19.227Z,8.17
2019-03-19T16:27:47.677Z,8.19
2019-03-19T16:30:17.323Z,8.19
2019-03-19T16:32:45.818Z,8.18
2019-03-19T16:35:14.589Z,8.15
2019-03-19T16:37:43.033Z,8.06
2019-03-19T16:40:23.032Z,8.05
2019-03-19T16:42:51.543Z,8.10
2019-03-19T16:45:20.073Z,8.02
2019-03-19T16:47:48.671Z,7.88
2019-03-19T16:50:21.209Z,7.90
2019-03-19T16:52:49.707Z,7.82
2019-03-19T16:55:19.831Z,7.83
2019-03-19T16:57:48.276Z,7.79
2019-03-19T17:00:21.933Z,7.70
2019-03-19T17:02:50.439Z,7.71
2019-03-19T17:05:19.162Z,7.73
2019-03-19T17:07:47.527Z,7.69
2019-03-19T17:10:21.202Z,7.68
2019-03-19T17:12:49.790Z,7.64
2019-03-19T17:15:18.330Z,7.61
2019-03-19T17:17:47.692Z,7.57
2019-03-19T17:20:17.714Z,7.62
2019-03-19T17:22:46.231Z,7.61
2019-03-19T17:25:27.983Z,7.54
2019-03-19T17:27:56.427Z,7.51
2019-03-19T17:30:33.250Z,7.51
2019-03-19T17:33:01.663Z,7.52
2019-03-19T17:35:30.113Z,7.52
2019-03-19T17:37:58.559Z,7.48
2019-03-19T17:40:27.002Z,7.47
2019-03-19T17:42:55.432Z,7.47
2019-03-19T17:45:24.034Z,7.48
2019-03-19T17:47:52.549Z,7.48
2019-03-19T17:50:32.360Z,7.49
2019-03-19T17:53:00.777Z,7.50
2019-03-19T17:55:29.228Z,7.45
2019-03-19T17:57:57.681Z,7.46
2019-03-19T18:00:39.972Z,7.37
2019-03-19T18:03:08.515Z,7.42
2019-03-19T18:05:37.122Z,7.43
2019-03-19T18:08:06.328Z,7.45
2019-03-19T18:10:34.803Z,7.42
2019-03-19T18:13:03.291Z,7.38
2019-03-19T18:15:31.773Z,7.34
2019-03-19T18:18:00.222Z,7.27
2019-03-19T18:20:28.837Z,7.19
2019-03-19T18:22:57.311Z,7.09
2019-03-19T18:25:25.823Z,6.96
2019-03-19T18:27:54.288Z,7.01
2019-03-19T18:30:23.954Z,6.99
2019-03-19T18:32:52.498Z,6.92
2019-03-19T18:35:20.915Z,6.83
2019-03-19T18:37:49.461Z,6.73
2019-03-19T18:40:19.957Z,6.74
2019-03-19T18:42:48.419Z,6.74
2019-03-19T18:45:18.730Z,6.73
2019-03-19T18:47:47.217Z,6.71
2019-03-19T18:50:18.679Z,6.67
2019-03-19T18:52:47.790Z,6.63
2019-03-19T18:55:16.225Z,6.62
2019-03-19T18:57:44.674Z,6.55
2019-03-19T19:00:16.010Z,6.55
2019-03-19T19:02:49.525Z,6.53
2019-03-19T19:05:18.058Z,6.54
2019-03-19T19:07:46.514Z,6.52
2019-03-19T19:10:20.880Z,6.50
2019-03-19T19:12:48.897Z,6.49
2019-03-19T19:15:24.427Z,6.47
2019-03-19T19:17:52.907Z,6.45
2019-03-19T19:20:21.428Z,6.46
2019-03-19T19:22:50.016Z,6.36
2019-03-19T19:25:23.607Z,6.39
2019-03-19T19:27:52.140Z,6.37
2019-03-19T19:30:28.410Z,6.32
2019-03-19T19:33:02.137Z,6.32
2019-03-19T19:35:27.000Z,6.32
2019-03-19T19:37:56.207Z,6.33
2019-03-19T19:40:26.226Z,6.34
2019-03-19T19:42:55.410Z,6.24
2019-03-19T19:45:24.051Z,6.24
2019-03-19T19:47:52.553Z,6.16
2019-03-19T19:50:22.136Z,6.06
2019-03-19T19:52:50.584Z,6.03
2019-03-19T19:55:19.065Z,6.09
2019-03-19T19:57:47.670Z,5.98
2019-03-19T20:00:18.533Z,5.89
2019-03-19T20:02:47.255Z,5.90
2019-03-19T20:05:16.404Z,5.86
2019-03-19T20:07:44.851Z,5.84
2019-03-19T20:10:24.266Z,5.74
2019-03-19T20:12:52.883Z,5.70
2019-03-19T20:15:21.365Z,5.54
2019-03-19T20:17:49.788Z,5.48
2019-03-19T20:20:20.286Z,5.45
2019-03-19T20:22:49.256Z,5.42
2019-03-19T20:25:18.174Z,5.44
2019-03-19T20:27:47.489Z,5.37
2019-03-19T20:30:20.211Z,5.31
2019-03-19T20:32:52.798Z,5.26
2019-03-19T20:35:21.325Z,5.24
2019-03-19T20:37:49.859Z,5.24
2019-03-19T20:40:18.428Z,5.18
2019-03-19T20:42:46.934Z,5.14
2019-03-19T20:45:20.074Z,5.14
2019-03-19T20:47:48.543Z,5.08
2019-03-19T20:53:16.673Z,5.00
2019-03-19T20:55:45.113Z,4.91
2019-03-19T20:58:13.664Z,4.90
2019-03-19T21:00:42.082Z,4.86
2019-03-19T21:03:10.551Z,4.88
2019-03-19T21:05:39.097Z,4.82
2019-03-19T21:08:07.735Z,4.76
2019-03-19T21:10:37.350Z,4.78
2019-03-19T21:13:05.842Z,4.73
2019-03-19T21:15:34.304Z,4.72
2019-03-19T21:18:02.946Z,4.65
2019-03-19T21:20:31.676Z,4.63
2019-03-19T21:23:00.346Z,4.52
2019-03-19T21:25:28.885Z,4.49
2019-03-19T21:27:57.389Z,4.42
2019-03-19T21:30:25.894Z,4.36
2019-03-19T21:32:54.352Z,4.29
2019-03-19T21:35:23.835Z,4.34
2019-03-19T21:37:52.448Z,4.26
2019-03-19T21:40:21.438Z,4.24
2019-03-19T21:42:50.385Z,4.23
2019-03-19T21:45:20.913Z,4.18
2019-03-19T21:47:49.431Z,4.13
2019-03-19T21:50:23.027Z,4.04
2019-03-19T21:52:51.795Z,4.03
2019-03-19T21:55:20.293Z,3.97
2019-03-19T21:57:51.584Z,3.96
2019-03-19T22:00:24.542Z,3.87
2019-03-19T22:02:53.080Z,3.82
2019-03-19T22:05:21.726Z,3.83
2019-03-19T22:07:50.163Z,3.80
2019-03-19T22:10:20.263Z,3.82
2019-03-19T22:12:49.801Z,3.76
2019-03-19T22:15:24.672Z,3.72
2019-03-19T22:17:53.365Z,3.66
2019-03-19T22:20:22.150Z,3.62
2019-03-19T22:22:50.618Z,3.61
2019-03-19T22:25:19.461Z,3.54
2019-03-19T22:27:49.736Z,3.42
2019-03-19T22:30:20.217Z,3.29
2019-03-19T22:32:48.693Z,3.37
2019-03-19T22:35:21.333Z,3.28
2019-03-19T22:37:49.798Z,3.32
2019-03-19T22:40:18.937Z,3.09
2019-03-19T22:42:47.563Z,3.11
2019-03-19T22:45:16.873Z,3.18
2019-03-19T22:47:45.351Z,3.10
2019-03-19T22:50:15.131Z,3.03
2019-03-19T22:52:43.738Z,3.07
2019-03-19T22:55:13.478Z,3.04
2019-03-19T22:57:42.098Z,3.01
2019-03-19T23:00:37.170Z,3.02
2019-03-19T23:03:07.133Z,2.96
2019-03-19T23:05:36.531Z,2.92
2019-03-19T23:08:05.339Z,2.85
2019-03-19T23:10:34.473Z,2.82
2019-03-19T23:13:03.004Z,2.75
2019-03-19T23:15:31.420Z,2.78
2019-03-19T23:18:00.211Z,2.71
2019-03-19T23:20:29.507Z,2.72
2019-03-19T23:22:58.007Z,2.71
2019-03-19T23:25:26.450Z,2.59
2019-03-19T23:27:54.871Z,2.62
2019-03-19T23:30:24.845Z,2.61
2019-03-19T23:32:53.792Z,2.59
2019-03-19T23:35:22.326Z,2.52
2019-03-19T23:37:50.799Z,2.48
2019-03-19T23:40:20.854Z,2.47
2019-03-19T23:42:49.422Z,2.39
2019-03-19T23:45:17.964Z,2.27
2019-03-19T23:47:46.386Z,2.27
2019-03-19T23:50:19.894Z,2.18
2019-03-19T23:52:49.114Z,2.15
2019-03-19T23:55:17.625Z,2.10
2019-03-19T23:57:46.078Z,1.93
